Time;durP1;ratioP1;P1;durP2;ratioP2;P2;SDS_P1;SDS_P2;PMS_P1;PMS_P2;Temp;Humidity;BMP_temperature;BMP_pressure;BME280_temperature;BME280_humidity;BME280_pressure;Samples;Min_cycle;Max_cycle;Signal;HPM_P1;HPM_P2
2022/04/12 00:00:23;;;;;;;1.58;0.40;;;;;;;12.39;48.92;100203.31;5069749;28;20048;-73
2022/04/12 00:02:52;;;;;;;0.40;0.20;;;;;;;12.30;48.95;100217.94;5069480;28;20076;-73
2022/04/12 00:05:23;;;;;;;1.42;0.70;;;;;;;12.39;47.61;100199.00;5069245;28;20040;-74
2022/04/12 00:07:52;;;;;;;1.25;0.55;;;;;;;12.51;49.61;100217.34;5069368;28;20057;-73
2022/04/12 00:10:21;;;;;;;2.10;0.60;;;;;;;12.58;47.12;100228.66;5070046;28;20090;-72
2022/04/12 00:12:50;;;;;;;2.72;1.15;;;;;;;12.66;49.25;100223.56;5069783;28;20044;-72
2022/04/12 00:15:18;;;;;;;1.88;0.40;;;;;;;12.78;47.54;100219.41;5069981;28;20533;-72
2022/04/12 00:20:34;;;;;;;0.73;0.45;;;;;;;12.74;47.34;100233.19;5072760;27;20078;-70
2022/04/12 00:23:03;;;;;;;2.65;0.80;;;;;;;12.61;48.07;100238.22;5068228;28;20044;-73
2022/04/12 00:25:31;;;;;;;2.60;0.50;;;;;;;12.43;47.01;100225.88;5069998;28;20055;-72
2022/04/12 00:28:00;;;;;;;2.35;0.70;;;;;;;12.57;47.69;100237.28;5068568;28;20051;-75
2022/04/12 00:30:30;;;;;;;3.38;1.10;;;;;;;12.54;47.68;100226.88;5068972;28;20102;-73
2022/04/12 00:32:58;;;;;;;5.57;1.85;;;;;;;12.61;46.36;100239.09;5068495;28;20056;-73
2022/04/12 00:35:27;;;;;;;5.53;1.88;;;;;;;12.57;45.19;100256.34;5068835;28;20052;-73
2022/04/12 00:37:59;;;;;;;2.80;1.02;;;;;;;12.42;43.41;100250.09;5068947;28;20044;-72
2022/04/12 00:40:28;;;;;;;4.72;1.65;;;;;;;12.28;43.01;100258.53;5069084;28;20131;-73
2022/04/12 00:42:57;;;;;;;6.30;1.75;;;;;;;12.22;46.04;100253.25;5068629;28;20052;-74
2022/04/12 00:45:25;;;;;;;4.65;1.70;;;;;;;12.26;42.54;100264.56;5068679;28;20062;-72
2022/04/12 00:47:54;;;;;;;3.45;1.27;;;;;;;12.20;43.99;100259.28;5068687;28;20052;-74
2022/04/12 00:50:22;;;;;;;6.22;1.45;;;;;;;12.13;45.52;100263.50;5068640;28;20472;-76
2022/04/12 00:52:53;;;;;;;2.05;1.20;;;;;;;12.12;44.53;100266.94;5068755;28;20121;-72
2022/04/12 00:55:23;;;;;;;4.30;1.50;;;;;;;12.08;46.04;100265.16;5069155;28;20526;-73
2022/04/12 00:57:56;;;;;;;5.30;1.65;;;;;;;12.00;44.83;100259.81;5068460;28;20098;-76
2022/04/12 01:00:26;;;;;;;5.03;1.00;;;;;;;12.08;45.89;100283.31;5069176;28;20509;-71
2022/04/12 01:02:54;;;;;;;2.17;0.90;;;;;;;12.09;46.60;100272.06;5068514;28;20054;-70
2022/04/12 01:05:23;;;;;;;7.97;2.08;;;;;;;12.11;44.73;100281.59;5068351;28;20239;-70
2022/04/12 01:07:52;;;;;;;4.38;0.95;;;;;;;12.10;43.05;100282.47;5068164;28;20519;-71
2022/04/12 01:10:23;;;;;;;1.67;0.70;;;;;;;11.93;44.29;100282.22;5068908;28;20056;-73
2022/04/12 01:12:53;;;;;;;8.68;2.15;;;;;;;11.82;43.97;100283.72;5068847;28;20098;-71
2022/04/12 01:15:24;;;;;;;6.07;1.33;;;;;;;11.65;45.24;100279.94;5071166;28;20045;-72
2022/04/12 01:17:53;;;;;;;2.33;0.80;;;;;;;11.66;46.71;100292.06;5068709;28;20052;-73
2022/04/12 01:20:25;;;;;;;5.03;1.10;;;;;;;11.64;44.01;100293.78;5069947;27;20057;-71
2022/04/12 01:23:00;;;;;;;3.28;0.75;;;;;;;11.50;45.10;100296.97;5067977;28;20563;-73
2022/04/12 01:25:31;;;;;;;3.08;0.98;;;;;;;11.43;43.84;100295.13;5067805;28;20494;-72
2022/04/12 01:27:59;;;;;;;4.20;0.80;;;;;;;11.36;46.99;100306.22;5068519;28;20080;-71
2022/04/12 01:30:28;;;;;;;4.97;1.50;;;;;;;11.37;45.28;100305.38;5067759;28;20410;-71
2022/04/12 01:32:57;;;;;;;7.72;2.50;;;;;;;11.42;46.46;100313.22;5067868;28;20052;-72
2022/04/12 01:35:25;;;;;;;6.50;2.08;;;;;;;11.47;46.22;100314.19;5068184;28;20041;-72
2022/04/12 01:37:54;;;;;;;13.90;4.55;;;;;;;11.47;46.04;100312.44;5067507;28;20048;-73
2022/04/12 01:40:22;;;;;;;7.47;2.47;;;;;;;11.48;45.11;100321.97;5068286;28;20052;-72
2022/04/12 01:42:53;;;;;;;7.50;2.67;;;;;;;11.47;47.39;100316.75;5067383;28;20243;-72
2022/04/12 01:45:23;;;;;;;8.85;3.40;;;;;;;11.45;47.45;100324.53;5068042;28;20047;-73
2022/04/12 01:47:51;;;;;;;8.30;2.53;;;;;;;11.40;46.51;100327.84;5068285;28;20090;-72
2022/04/12 01:50:20;;;;;;;3.78;1.10;;;;;;;11.33;44.50;100332.91;5067614;28;20048;-71
2022/04/12 01:52:49;;;;;;;2.40;0.93;;;;;;;11.29;43.74;100335.41;5068197;28;20045;-72
2022/04/12 01:55:17;;;;;;;7.30;1.70;;;;;;;11.23;43.87;100335.31;5067973;28;20166;-72
2022/04/12 01:57:46;;;;;;;3.70;1.17;;;;;;;11.13;45.10;100343.72;5067547;28;20098;-72
2022/04/12 02:00:17;;;;;;;6.28;0.75;;;;;;;11.07;45.65;100347.94;5067424;28;20537;-72
2022/04/12 02:02:46;;;;;;;3.13;1.08;;;;;;;10.96;44.94;100348.56;5067801;28;20048;-75
2022/04/12 02:05:14;;;;;;;5.93;1.73;;;;;;;10.94;46.27;100360.59;5067424;28;20040;-73
2022/04/12 02:07:44;;;;;;;2.75;0.82;;;;;;;10.84;45.70;100350.03;5068567;28;20048;-71
2022/04/12 02:10:13;;;;;;;1.90;0.60;;;;;;;10.84;46.97;100365.56;5070744;28;20051;-72
2022/04/12 02:12:41;;;;;;;3.35;0.60;;;;;;;10.81;46.30;100377.53;5070482;28;20045;-73
2022/04/12 02:15:10;;;;;;;3.83;0.63;;;;;;;10.69;46.92;100376.44;5071693;28;20055;-71
2022/04/12 02:17:40;;;;;;;4.63;0.73;;;;;;;10.60;45.53;100381.38;5072301;28;20135;-73
2022/04/12 02:20:10;;;;;;;5.05;0.88;;;;;;;10.52;46.04;100385.53;5072577;27;20040;-74
2022/04/12 02:22:39;;;;;;;3.47;0.77;;;;;;;10.46;47.88;100387.97;5071144;28;20049;-75
2022/04/12 02:25:08;;;;;;;7.18;0.85;;;;;;;10.38;50.11;100395.53;5069839;28;20786;-76
2022/04/12 02:27:37;;;;;;;2.15;0.60;;;;;;;10.32;51.06;100390.22;5071702;28;20560;-75
2022/04/12 02:30:07;;;;;;;3.17;0.60;;;;;;;10.27;50.08;100392.66;5070302;28;20071;-75
2022/04/12 02:32:35;;;;;;;3.00;0.80;;;;;;;10.20;52.28;100398.50;5070926;28;20049;-76
2022/04/12 02:35:06;;;;;;;1.40;0.80;;;;;;;10.08;50.34;100400.78;5070830;28;20560;-74
2022/04/12 02:37:35;;;;;;;3.47;0.57;;;;;;;9.99;51.96;100400.56;5070787;28;20044;-71
2022/04/12 02:40:04;;;;;;;3.78;0.90;;;;;;;9.88;49.98;100402.84;5070658;28;20056;-72
2022/04/12 02:42:33;;;;;;;6.68;1.30;;;;;;;9.78;51.32;100406.00;5071272;28;20049;-73
2022/04/12 02:45:01;;;;;;;3.80;1.10;;;;;;;9.72;50.44;100409.31;5071292;28;20651;-72
2022/04/12 02:47:29;;;;;;;4.95;1.00;;;;;;;9.64;52.82;100421.13;5071047;28;20053;-70
2022/04/12 02:49:58;;;;;;;6.63;2.17;;;;;;;9.59;52.56;100430.47;5070806;28;20103;-71
2022/04/12 02:52:28;;;;;;;5.47;1.27;;;;;;;9.53;55.66;100428.59;5071158;28;20045;-71
2022/04/12 02:54:57;;;;;;;6.53;1.17;;;;;;;9.45;53.00;100432.66;5070725;28;20052;-71
2022/04/12 02:57:25;;;;;;;6.60;0.95;;;;;;;9.39;52.98;100437.63;5071341;28;20167;-71
2022/04/12 02:59:53;;;;;;;5.22;1.08;;;;;;;9.29;53.64;100441.66;5071049;28;20044;-72
2022/04/12 03:02:22;;;;;;;4.88;0.77;;;;;;;9.20;52.84;100436.22;5071167;28;20087;-72
2022/04/12 03:04:50;;;;;;;4.97;0.70;;;;;;;9.15;52.89;100446.41;5071792;28;20494;-72
2022/04/12 03:07:19;;;;;;;7.80;1.38;;;;;;;9.12;54.30;100448.03;5073572;28;20080;-72
2022/04/12 03:09:49;;;;;;;4.93;0.98;;;;;;;9.07;54.94;100444.41;5070641;28;20072;-72
2022/04/12 03:12:17;;;;;;;4.38;1.15;;;;;;;9.05;55.13;100449.56;5071151;28;20052;-72
2022/04/12 03:14:47;;;;;;;6.32;1.38;;;;;;;8.97;54.58;100441.56;5070645;28;20107;-78
2022/04/12 03:17:15;;;;;;;2.47;0.88;;;;;;;8.84;54.55;100444.56;5070761;28;20563;-76
2022/04/12 03:19:44;;;;;;;4.53;0.85;;;;;;;8.87;53.95;100467.06;5070657;28;20506;-74
2022/04/12 03:22:12;;;;;;;2.97;0.57;;;;;;;8.81;55.56;100467.72;5070766;27;20076;-74
2022/04/12 03:24:41;;;;;;;8.07;1.25;;;;;;;8.73;55.10;100469.19;5068605;28;20052;-74
2022/04/12 03:27:11;;;;;;;3.55;1.10;;;;;;;8.67;55.57;100479.28;5070727;28;20048;-74
2022/04/12 03:29:40;;;;;;;4.55;0.73;;;;;;;8.55;54.76;100472.03;5070608;28;20055;-75
2022/04/12 03:32:09;;;;;;;7.70;1.20;;;;;;;8.57;55.34;100491.03;5070538;28;20097;-74
2022/04/12 03:34:40;;;;;;;4.05;1.02;;;;;;;8.47;56.05;100499.25;5070480;28;20133;-74
2022/04/12 03:37:09;;;;;;;6.13;0.90;;;;;;;8.37;55.38;100496.34;5070154;28;20045;-74
2022/04/12 03:39:39;;;;;;;5.22;1.17;;;;;;;8.40;54.90;100505.91;5070552;28;20105;-74
2022/04/12 03:42:11;;;;;;;6.90;1.77;;;;;;;8.32;55.54;100507.31;5069774;28;20048;-75
2022/04/12 03:44:40;;;;;;;5.28;2.65;;;;;;;8.29;55.61;100508.09;5069448;28;20052;-76
2022/04/12 03:47:09;;;;;;;2.65;1.20;;;;;;;8.21;54.89;100509.53;5069592;28;20174;-75
2022/04/12 03:49:37;;;;;;;7.03;1.25;;;;;;;8.18;54.50;100538.66;5070228;28;20098;-75
2022/04/12 03:52:06;;;;;;;6.20;1.77;;;;;;;8.15;55.95;100546.28;5069530;28;20048;-76
2022/04/12 03:57:12;;;;;;;6.80;1.95;;;;;;;8.09;56.55;100551.19;5209000;22;20493;-69
2022/04/12 03:59:40;;;;;;;4.50;1.60;;;;;;;8.05;55.47;100554.47;5003530;28;20053;-69
2022/04/12 04:02:08;;;;;;;5.57;1.90;;;;;;;8.01;55.63;100547.47;5008303;28;20697;-71
2022/04/12 04:04:37;;;;;;;2.92;1.52;;;;;;;7.95;55.61;100552.41;5012272;28;20081;-71
2022/04/12 04:07:06;;;;;;;4.30;1.02;;;;;;;7.85;55.62;100558.91;5009702;28;20104;-71
2022/04/12 04:09:34;;;;;;;4.72;1.80;;;;;;;7.80;55.98;100554.41;5009681;28;20049;-70
2022/04/12 04:12:04;;;;;;;6.13;1.50;;;;;;;7.76;55.99;100555.97;5012643;28;20041;-70
2022/04/12 04:14:34;;;;;;;7.88;1.10;;;;;;;7.71;55.42;100560.94;5027851;28;20496;-70
2022/04/12 04:17:02;;;;;;;6.47;0.95;;;;;;;7.66;55.37;100574.50;5022362;28;20056;-70
2022/04/12 04:19:31;;;;;;;6.50;1.00;;;;;;;7.60;56.03;100574.25;5008832;28;20109;-70
2022/04/12 04:21:59;;;;;;;3.05;0.75;;;;;;;7.55;57.55;100579.22;5008659;28;20509;-70
2022/04/12 04:24:28;;;;;;;2.10;0.75;;;;;;;7.53;56.70;100580.84;5008145;28;20125;-69
2022/04/12 04:26:56;;;;;;;8.32;1.77;;;;;;;7.49;58.89;100589.25;5009153;28;20115;-69
2022/04/12 04:29:27;;;;;;;12.20;2.92;;;;;;;7.43;59.07;100604.50;5008545;28;20116;-70
2022/04/12 04:31:57;;;;;;;21.00;3.95;;;;;;;7.36;59.48;100607.66;5028069;28;20053;-70
2022/04/12 04:34:25;;;;;;;18.48;3.53;;;;;;;7.27;60.44;100598.72;5020552;28;20053;-70
2022/04/12 04:36:54;;;;;;;9.50;2.40;;;;;;;7.15;61.94;100603.38;5008960;28;20062;-70
2022/04/12 04:39:22;;;;;;;11.52;2.33;;;;;;;7.04;63.91;100602.06;5009841;28;20093;-71
2022/04/12 04:41:50;;;;;;;9.68;2.00;;;;;;;6.96;64.71;100598.28;5008830;28;20104;-69
2022/04/12 04:44:19;;;;;;;6.72;1.77;;;;;;;6.83;66.92;100607.19;5009915;28;20518;-70
2022/04/12 04:46:47;;;;;;;3.75;1.42;;;;;;;6.72;68.28;100606.75;5008817;28;20139;-70
2022/04/12 04:49:17;;;;;;;3.85;1.42;;;;;;;6.64;68.39;100610.66;5008988;28;20053;-70
2022/04/12 04:51:46;;;;;;;12.02;2.40;;;;;;;6.57;68.48;100606.94;5008808;28;20096;-70
2022/04/12 04:54:15;;;;;;;7.30;2.80;;;;;;;6.50;69.95;100608.41;5009180;28;20082;-70
2022/04/12 04:56:43;;;;;;;6.40;1.73;;;;;;;6.44;70.72;100620.09;5008205;28;20143;-69
2022/04/12 04:59:13;;;;;;;6.15;1.30;;;;;;;6.37;70.33;100616.38;4989009;28;20076;-69
2022/04/12 05:01:41;;;;;;;11.30;1.88;;;;;;;6.36;70.52;100632.59;4988797;28;20050;-69
2022/04/12 05:04:10;;;;;;;4.78;1.50;;;;;;;6.31;71.19;100634.09;5001010;28;20490;-70
2022/04/12 05:06:40;;;;;;;7.18;1.90;;;;;;;6.30;72.41;100637.47;5028719;28;20081;-69
2022/04/12 05:09:08;;;;;;;3.83;1.58;;;;;;;6.28;72.73;100646.81;5017470;28;20058;-69
2022/04/12 05:11:36;;;;;;;7.28;1.70;;;;;;;6.26;73.00;100651.00;5009294;28;20077;-69
2022/04/12 05:14:13;;;;;;;2.83;1.10;;;;;;;6.20;74.17;100648.13;5008269;28;20050;-68
2022/04/12 05:16:41;;;;;;;5.03;0.98;;;;;;;6.06;74.33;100640.69;5008600;28;20100;-69
2022/04/12 05:19:10;;;;;;;4.18;1.10;;;;;;;6.06;75.05;100657.78;5008654;28;20064;-69
2022/04/12 05:21:40;;;;;;;3.67;1.33;;;;;;;5.93;74.98;100658.84;5008157;28;20808;-70
2022/04/12 05:24:09;;;;;;;6.40;0.85;;;;;;;5.87;75.14;100661.16;5008463;28;20046;-69
2022/04/12 05:26:37;;;;;;;2.78;0.88;;;;;;;5.86;74.47;100661.94;5008026;28;20378;-70
2022/04/12 05:29:05;;;;;;;5.65;0.63;;;;;;;5.84;74.73;100666.13;5007976;28;20438;-68
2022/04/12 05:31:34;;;;;;;4.38;0.95;;;;;;;5.79;74.58;100670.19;5007696;28;20049;-69
2022/04/12 05:34:02;;;;;;;4.63;1.20;;;;;;;5.71;74.28;100671.53;5007682;28;20176;-70
2022/04/12 05:36:31;;;;;;;3.15;1.35;;;;;;;5.63;72.35;100677.13;5007360;28;20129;-69
2022/04/12 05:39:01;;;;;;;5.13;1.25;;;;;;;5.55;72.24;100673.34;5008768;28;20511;-70
2022/04/12 05:41:29;;;;;;;2.75;1.02;;;;;;;5.49;75.37;100691.00;5008447;28;20120;-70
2022/04/12 05:43:58;;;;;;;4.25;1.33;;;;;;;5.35;76.58;100682.63;5008113;28;20455;-69
2022/04/12 05:46:26;;;;;;;4.65;0.82;;;;;;;5.30;77.40;100693.47;5007287;28;20046;-68
2022/04/12 05:48:54;;;;;;;3.92;1.13;;;;;;;5.23;75.36;100706.00;5008416;28;20383;-70
2022/04/12 05:51:23;;;;;;;1.83;0.95;;;;;;;5.25;75.62;100711.22;5007764;28;20054;-70
2022/04/12 05:53:51;;;;;;;8.18;1.27;;;;;;;5.27;76.25;100714.75;5007789;28;20050;-70
2022/04/12 05:56:28;;;;;;;4.78;1.35;;;;;;;5.28;75.21;100725.88;5006902;28;20100;-70
2022/04/12 05:58:56;;;;;;;10.98;1.23;;;;;;;5.25;75.15;100734.31;5007791;28;20491;-69
2022/04/12 06:01:25;;;;;;;12.05;1.80;;;;;;;5.21;76.20;100732.38;5007968;28;20112;-70
2022/04/12 06:03:53;;;;;;;3.60;1.40;;;;;;;5.14;76.91;100740.56;5007365;28;20549;-70
2022/04/12 06:06:22;;;;;;;4.70;0.90;;;;;;;5.16;76.45;100741.53;5008102;28;20053;-70
2022/04/12 06:08:50;;;;;;;4.70;0.68;;;;;;;5.15;76.00;100738.06;5009913;28;20050;-69
2022/04/12 06:11:18;;;;;;;6.93;1.15;;;;;;;5.17;76.16;100749.28;5009931;28;20045;-69
2022/04/12 06:13:48;;;;;;;4.05;0.88;;;;;;;5.19;75.42;100747.69;5007136;28;20534;-70
2022/04/12 06:16:17;;;;;;;5.05;0.95;;;;;;;5.21;74.49;100748.66;5008205;28;20054;-69
2022/04/12 06:18:46;;;;;;;7.00;1.45;;;;;;;5.24;74.39;100761.66;5007439;28;20049;-70
2022/04/12 06:21:14;;;;;;;6.65;1.15;;;;;;;5.30;74.46;100762.75;5007620;28;20081;-70
2022/04/12 06:23:43;;;;;;;11.60;1.17;;;;;;;5.33;73.52;100761.22;5007943;28;20050;-70
2022/04/12 06:26:12;;;;;;;4.88;1.13;;;;;;;5.37;73.80;100764.81;5008041;28;20128;-70
2022/04/12 06:28:40;;;;;;;8.60;0.98;;;;;;;5.35;73.29;100772.44;5008255;28;20045;-70
2022/04/12 06:31:10;;;;;;;8.77;1.48;;;;;;;5.33;73.05;100775.72;5007981;28;20388;-70
2022/04/12 06:33:39;;;;;;;5.60;1.73;;;;;;;5.27;77.16;100778.88;5008305;28;20100;-71
2022/04/12 06:36:08;;;;;;;0.88;0.70;;;;;;;5.22;77.76;100782.88;5007563;28;20050;-70
2022/04/12 06:38:36;;;;;;;3.28;0.93;;;;;;;5.23;78.63;100793.22;5007954;28;20123;-70
2022/04/12 06:41:05;;;;;;;6.28;0.90;;;;;;;5.25;78.92;100794.19;5008166;28;20120;-69
2022/04/12 06:43:33;;;;;;;4.03;0.93;;;;;;;5.30;79.88;100796.09;5008081;28;20057;-69
2022/04/12 06:46:02;;;;;;;6.57;1.15;;;;;;;5.30;79.92;100796.97;5008150;28;20060;-69
2022/04/12 06:48:32;;;;;;;6.03;1.25;;;;;;;5.33;78.95;100803.94;5007982;28;20054;-69
2022/04/12 06:51:00;;;;;;;6.63;1.15;;;;;;;5.35;78.65;100810.03;5007927;28;20049;-70
2022/04/12 06:53:28;;;;;;;3.72;1.35;;;;;;;5.38;78.06;100807.63;5007624;28;20104;-69
2022/04/12 06:56:06;;;;;;;4.30;1.85;;;;;;;5.40;79.61;100809.47;5007742;28;20136;-70
2022/04/12 06:58:34;;;;;;;2.90;1.15;;;;;;;5.43;80.51;100806.19;5009427;28;20053;-69
2022/04/12 07:01:03;;;;;;;7.68;1.10;;;;;;;5.36;81.53;100806.66;5010864;28;20081;-69
2022/04/12 07:03:33;;;;;;;4.88;1.10;;;;;;;5.26;83.05;100802.75;5011984;28;20081;-70
2022/04/12 07:06:01;;;;;;;7.20;0.93;;;;;;;5.22;86.40;100806.84;5031074;28;20053;-70
2022/04/12 07:08:30;;;;;;;2.60;1.00;;;;;;;5.18;84.71;100804.94;5022618;28;20546;-70
2022/04/12 07:10:58;;;;;;;3.17;1.00;;;;;;;5.15;98.01;100807.31;5012082;28;20050;-69
2022/04/12 07:13:27;;;;;;;7.32;0.95;;;;;;;5.12;97.96;100804.59;5011694;28;20057;-70
2022/04/12 07:15:55;;;;;;;5.70;1.00;;;;;;;5.15;96.43;100817.56;5011406;28;20053;-69
2022/04/12 07:18:24;;;;;;;6.05;1.23;;;;;;;5.21;96.54;100817.91;5011391;28;20111;-69
2022/04/12 07:20:55;;;;;;;2.70;1.20;;;;;;;5.24;99.29;100812.97;5011090;28;20066;-70
2022/04/12 07:23:23;;;;;;;4.40;1.08;;;;;;;5.20;100.00;100811.03;5010832;28;20096;-70
2022/04/12 07:25:52;;;;;;;3.20;0.90;;;;;;;5.15;100.00;100812.44;5010650;28;20087;-69
2022/04/12 07:28:20;;;;;;;4.63;0.93;;;;;;;5.09;100.00;100814.72;5011452;28;20046;-70
2022/04/12 07:30:49;;;;;;;2.40;0.60;;;;;;;5.09;100.00;100822.41;5010657;28;20057;-70
2022/04/12 07:33:17;;;;;;;1.58;0.55;;;;;;;5.11;100.00;100820.81;5010623;28;20384;-69
2022/04/12 07:35:46;;;;;;;2.92;0.73;;;;;;;5.11;100.00;100818.25;5010846;28;20116;-70
2022/04/12 07:38:16;;;;;;;2.78;0.60;;;;;;;5.12;100.00;100821.69;5010782;28;20058;-70
2022/04/12 07:40:44;;;;;;;9.88;0.60;;;;;;;5.15;100.00;100824.41;5010450;28;20077;-69
2022/04/12 07:43:13;;;;;;;2.00;0.57;;;;;;;5.16;99.57;100827.06;5010710;28;20049;-69
2022/04/12 07:45:41;;;;;;;3.13;1.08;;;;;;;5.16;100.00;100824.50;5010944;28;20080;-70
2022/04/12 07:48:10;;;;;;;2.17;0.50;;;;;;;5.14;99.96;100820.97;5010310;28;20099;-69
2022/04/12 07:50:38;;;;;;;2.65;0.85;;;;;;;5.15;99.30;100829.53;5010983;28;20085;-70
2022/04/12 07:53:07;;;;;;;1.58;0.63;;;;;;;5.15;99.69;100832.97;5010016;28;20085;-69
2022/04/12 07:55:37;;;;;;;1.88;0.73;;;;;;;5.16;98.85;100839.00;5010181;28;20454;-69
2022/04/12 07:58:05;;;;;;;5.93;0.77;;;;;;;5.17;98.74;100840.75;5009500;28;20108;-69
2022/04/12 08:00:34;;;;;;;3.28;0.70;;;;;;;5.18;98.46;100840.84;5009997;28;20089;-69
2022/04/12 08:03:03;;;;;;;4.57;0.85;;;;;;;5.20;97.29;100851.16;5009626;28;20053;-69
2022/04/12 08:05:33;;;;;;;1.58;0.70;;;;;;;5.27;97.27;100847.25;5027278;28;20132;-69
2022/04/12 08:08:01;;;;;;;1.65;0.73;;;;;;;5.30;96.90;100847.41;5025779;28;20073;-69
2022/04/12 08:10:30;;;;;;;2.90;0.80;;;;;;;5.31;100.00;100844.03;5012624;28;20483;-69
2022/04/12 08:13:00;;;;;;;1.02;0.65;;;;;;;5.27;99.99;100852.38;5010353;28;20050;-69
2022/04/12 08:15:28;;;;;;;3.25;0.75;;;;;;;5.25;100.00;100860.88;5010247;28;20077;-69
2022/04/12 08:17:57;;;;;;;3.40;0.45;;;;;;;5.30;100.00;100862.81;5009727;28;20077;-69
2022/04/12 08:20:25;;;;;;;1.70;0.40;;;;;;;5.32;100.00;100863.78;5009816;28;20136;-69
2022/04/12 08:22:56;;;;;;;0.50;0.40;;;;;;;5.36;99.74;100868.25;5009389;28;20081;-69
2022/04/12 08:25:24;;;;;;;2.45;0.52;;;;;;;5.36;98.53;100868.25;5010147;28;20052;-70
2022/04/12 08:27:53;;;;;;;1.20;0.65;;;;;;;5.27;99.07;100853.28;5009821;28;20561;-69
2022/04/12 08:30:23;;;;;;;2.72;0.63;;;;;;;5.39;99.07;100868.44;5009568;28;20050;-69
2022/04/12 08:32:51;;;;;;;4.13;0.60;;;;;;;5.43;99.02;100871.22;5009769;28;20042;-69
2022/04/12 08:35:20;;;;;;;2.00;0.95;;;;;;;5.47;100.00;100877.38;5009466;28;20100;-69
2022/04/12 08:37:48;;;;;;;3.00;0.52;;;;;;;5.44;100.00;100861.84;5009272;28;20135;-69
2022/04/12 08:40:18;;;;;;;4.25;0.55;;;;;;;5.39;100.00;100863.28;5009675;28;20058;-70
2022/04/12 08:42:47;;;;;;;1.02;0.55;;;;;;;5.33;100.00;100860.41;5009360;28;20045;-69
2022/04/12 08:45:16;;;;;;;2.13;0.52;;;;;;;5.27;100.00;100863.53;5009123;28;20049;-69
2022/04/12 08:47:46;;;;;;;2.88;0.80;;;;;;;5.19;100.00;100857.97;5009484;28;20108;-69
2022/04/12 08:50:15;;;;;;;2.67;0.75;;;;;;;5.15;100.00;100858.63;5009053;28;20150;-69
2022/04/12 08:52:43;;;;;;;2.65;0.40;;;;;;;5.10;100.00;100860.06;5009600;28;20133;-69
2022/04/12 08:55:12;;;;;;;2.42;0.52;;;;;;;5.09;100.00;100866.00;5009513;28;20046;-69
2022/04/12 08:57:40;;;;;;;2.67;0.75;;;;;;;5.10;100.00;100870.31;5008270;28;20565;-69
2022/04/12 09:00:10;;;;;;;3.15;1.20;;;;;;;5.10;100.00;100875.44;5009479;28;20085;-69
2022/04/12 09:02:40;;;;;;;1.60;0.47;;;;;;;5.11;100.00;100877.22;5008712;28;20104;-69
2022/04/12 09:05:11;;;;;;;1.77;0.38;;;;;;;5.09;100.00;100870.25;5023179;28;20132;-69
2022/04/12 09:07:48;;;;;;;0.70;0.30;;;;;;;5.07;100.00;100870.16;5028556;28;20542;-69
2022/04/12 09:10:19;;;;;;;1.83;0.30;;;;;;;5.03;100.00;100865.66;5013788;28;20057;-69
2022/04/12 09:12:48;;;;;;;5.70;0.60;;;;;;;4.99;100.00;100858.59;5009140;28;20042;-69
2022/04/12 09:15:16;;;;;;;2.72;0.77;;;;;;;4.96;100.00;100855.88;5009490;28;20436;-69
2022/04/12 09:17:48;;;;;;;4.03;0.47;;;;;;;4.96;100.00;100861.03;5009102;28;20054;-69
2022/04/12 09:20:19;;;;;;;1.52;0.63;;;;;;;4.90;100.00;100860.69;5008791;28;20049;-68
2022/04/12 09:22:48;;;;;;;1.95;0.47;;;;;;;4.91;100.00;100868.47;5008094;28;20513;-69
2022/04/12 09:25:17;;;;;;;5.18;0.90;;;;;;;4.96;100.00;100873.84;5009081;28;20041;-68
2022/04/12 09:27:49;;;;;;;5.55;0.80;;;;;;;5.01;100.00;100877.53;5008518;28;20049;-69
2022/04/12 09:30:18;;;;;;;6.45;2.17;;;;;;;5.07;100.00;100885.56;5009113;28;20050;-69
2022/04/12 09:32:49;;;;;;;4.43;0.50;;;;;;;5.10;100.00;100882.28;5008878;28;20502;-69
2022/04/12 09:35:19;;;;;;;4.57;0.77;;;;;;;5.11;100.00;100866.06;5008664;28;20081;-69
2022/04/12 09:37:48;;;;;;;3.78;0.88;;;;;;;5.07;100.00;100859.03;5008705;28;20085;-69
2022/04/12 09:40:19;;;;;;;3.80;0.70;;;;;;;5.03;100.00;100858.84;5009276;28;20050;-69
2022/04/12 09:42:49;;;;;;;2.88;0.68;;;;;;;5.03;100.00;100855.41;5008369;28;20101;-68
2022/04/12 09:45:19;;;;;;;3.70;0.90;;;;;;;5.02;100.00;100856.22;5008768;28;20101;-68
2022/04/12 09:47:49;;;;;;;2.65;0.30;;;;;;;5.00;100.00;100858.69;5008919;28;20154;-68
2022/04/12 09:50:22;;;;;;;2.90;0.85;;;;;;;5.05;100.00;100856.38;5008709;28;20046;-68
2022/04/12 09:52:55;;;;;;;3.70;0.45;;;;;;;4.99;100.00;100841.56;5008440;28;20550;-69
2022/04/12 09:55:37;;;;;;;3.67;0.75;;;;;;;5.12;100.00;100861.03;5008335;28;20104;-68
2022/04/12 09:58:07;;;;;;;3.58;0.70;;;;;;;5.07;100.00;100854.78;5007149;28;20054;-67
2022/04/12 10:00:38;;;;;;;4.10;0.40;;;;;;;5.11;100.00;100866.06;5008521;28;20557;-68
2022/04/12 10:03:08;;;;;;;5.10;0.63;;;;;;;5.09;100.00;100885.66;5007842;28;20081;-70
2022/04/12 10:05:38;;;;;;;0.82;0.52;;;;;;;5.13;100.00;100901.28;5026882;28;20099;-68
2022/04/12 10:08:09;;;;;;;1.83;0.43;;;;;;;5.18;100.00;100907.53;5023978;28;20046;-68
2022/04/12 10:10:41;;;;;;;3.97;0.93;;;;;;;5.20;100.00;100903.38;5010515;28;20049;-70
2022/04/12 10:13:12;;;;;;;4.80;1.00;;;;;;;5.24;100.00;100913.00;5008367;28;20173;-69
2022/04/12 10:15:41;;;;;;;2.50;0.90;;;;;;;5.25;100.00;100912.19;5008556;28;20724;-69
2022/04/12 10:18:11;;;;;;;2.97;1.05;;;;;;;5.25;100.00;100912.19;5008131;28;20096;-69
2022/04/12 10:20:41;;;;;;;3.22;1.40;;;;;;;5.23;100.00;100907.78;5008330;28;20081;-68
2022/04/12 10:23:11;;;;;;;1.20;0.60;;;;;;;5.10;100.00;100911.34;5007609;28;20054;-68
2022/04/12 10:25:40;;;;;;;4.43;0.70;;;;;;;5.03;100.00;100893.88;5007821;28;20152;-69
2022/04/12 10:28:09;;;;;;;1.33;0.20;;;;;;;4.98;100.00;100885.94;5008078;28;20153;-69
2022/04/12 10:30:38;;;;;;;2.30;0.45;;;;;;;4.97;100.00;100883.28;5008609;28;20123;-69
2022/04/12 10:33:08;;;;;;;1.52;0.25;;;;;;;4.91;100.00;100882.97;5008658;28;20050;-69
2022/04/12 10:36:06;;;;;;;2.58;0.63;;;;;;;4.85;100.00;100892.88;5012105;28;20058;-69
2022/04/12 10:38:42;;;;;;;2.78;0.68;;;;;;;4.81;100.00;100886.69;5011825;28;20096;-69
2022/04/12 10:41:19;;;;;;;5.30;0.75;;;;;;;4.79;100.00;100889.19;5012481;28;20085;-69
2022/04/12 10:43:57;;;;;;;0.55;0.30;;;;;;;4.71;100.00;100895.56;5011529;28;20049;-68
2022/04/12 10:46:26;;;;;;;5.40;0.82;;;;;;;4.79;100.00;100893.44;5011417;28;20045;-68
2022/04/12 10:48:57;;;;;;;2.92;0.75;;;;;;;4.77;100.00;100887.34;5011559;28;20495;-68
2022/04/12 10:51:41;;;;;;;3.75;0.57;;;;;;;4.76;100.00;100891.56;5011728;28;20177;-69
2022/04/12 10:54:30;;;;;;;3.95;0.88;;;;;;;4.74;100.00;100882.03;5011474;28;20053;-69
2022/04/12 10:57:27;;;;;;;2.40;0.60;;;;;;;4.76;100.00;100878.75;5011289;28;20058;-69
2022/04/12 11:00:03;;;;;;;5.35;0.50;;;;;;;4.74;100.00;100889.72;4991964;28;20050;-69
2022/04/12 11:02:32;;;;;;;1.48;0.55;;;;;;;4.75;100.00;100900.06;4991372;28;20058;-68
2022/04/12 11:05:01;;;;;;;3.42;0.57;;;;;;;4.76;100.00;100889.00;5017207;28;20099;-68
2022/04/12 11:07:36;;;;;;;3.67;0.80;;;;;;;4.75;100.00;100879.56;5031308;28;20046;-68
2022/04/12 11:10:25;;;;;;;7.13;0.68;;;;;;;4.74;100.00;100890.63;4992839;28;20071;-69
2022/04/12 11:13:06;;;;;;;8.52;1.27;;;;;;;4.70;100.00;100893.81;5001022;28;20049;-68
2022/04/12 11:15:36;;;;;;;2.22;0.60;;;;;;;4.67;100.00;100897.88;5011784;28;20038;-68
2022/04/12 11:18:13;;;;;;;2.83;0.68;;;;;;;4.65;100.00;100894.34;5010194;28;20081;-69
2022/04/12 11:20:43;;;;;;;2.65;0.95;;;;;;;4.66;100.00;100888.44;5010632;28;20098;-68
2022/04/12 11:23:14;;;;;;;3.33;0.68;;;;;;;4.63;100.00;100884.03;5006250;28;20046;-69
2022/04/12 11:25:50;;;;;;;8.55;1.02;;;;;;;4.61;100.00;100872.81;5008686;28;20129;-68
2022/04/12 11:28:24;;;;;;;1.02;0.70;;;;;;;4.52;100.00;100880.84;5010325;28;20050;-68
2022/04/12 11:30:58;;;;;;;3.17;1.08;;;;;;;4.46;100.00;100884.75;5010850;28;20129;-68
2022/04/12 11:33:28;;;;;;;2.75;0.73;;;;;;;4.44;100.00;100878.66;5010272;28;20058;-69
2022/04/12 11:35:58;;;;;;;4.00;0.80;;;;;;;4.39;100.00;100871.59;5010783;28;20485;-68
2022/04/12 11:38:28;;;;;;;3.55;1.05;;;;;;;4.35;100.00;100873.91;5010259;28;20470;-68
2022/04/12 11:41:02;;;;;;;6.13;0.68;;;;;;;4.36;100.00;100876.56;5010693;28;20104;-68
2022/04/12 11:43:31;;;;;;;1.92;0.80;;;;;;;4.40;100.00;100885.31;5009835;28;20042;-69
2022/04/12 11:46:01;;;;;;;3.22;0.57;;;;;;;4.44;100.00;100896.59;5008806;28;20050;-69